Latest Weather Observations for Green Cape

IDN60801

Issued at 10:35 pm EDT Saturday 1 November 2014 (issued every 30 minutes, with the page automatically refreshed every 10 minutes)

About weather observations | Map of weather stations | Latest weather observations for NSW | Other Formats
Station Details ID: 069137 Name: GREEN CAPE AWS Lat: -37.26 Lon: 150.05 Height: 19.4 m
Data from the previous 72 hours. | See also: Recent months at Green Cape
Date/Time
EDT
Temp
°C
App
Temp
°C
Dew
Point
Rel
Hum
%
Delta-T
°C
Wind Press
QNH
hPa
Press
MSL
hPa
Rain
since 9 am
mm
Dir
 
Spd
km/h
Gust
km/h
Spd
kts
Gust
kts
01/10:30pm 12.2 1.6 5.1 62 3.3 WSW 50 63 27 34 1009.8 1009.8 1.8
01/10:09pm 12.4 0.7 5.3 62 3.3 WSW 56 76 30 41 1009.2 1009.2 1.8
01/10:00pm 12.4 1.9 5.8 64 3.1 WSW 50 61 27 33 1009.5 1009.5 1.8
01/09:40pm 12.5 4.4 6.8 68 2.7 WSW 39 59 21 32 1009.6 1009.6 1.8
01/09:30pm 12.5 5.2 7.2 70 2.6 WSW 35 46 19 25 1009.5 1009.5 1.8
01/09:00pm 12.4 5.7 8.3 76 2.0 SW 33 44 18 24 1009.1 1009.1 1.8
01/08:30pm 12.3 3.2 8.4 77 1.9 WSW 46 72 25 39 1007.8 1007.8 1.8
01/08:21pm 12.4 2.2 8.7 78 1.9 WSW 52 72 28 39 1007.4 1007.3 1.8
01/08:00pm 12.0 4.2 9.7 86 1.2 SW 41 48 22 26 1006.6 1006.5 1.8
01/07:30pm 13.1 4.8 9.4 78 1.9 SW 43 52 23 28 1005.9 1005.8 1.4
01/07:00pm 13.5 4.8 9.9 79 1.9 SW 46 59 25 32 1004.3 1004.2 1.4
01/06:30pm 13.5 6.1 9.9 79 1.9 SW 39 50 21 27 1004.3 1004.2 1.4
01/06:00pm 14.6 6.5 10.2 75 2.3 SW 43 52 23 28 1003.6 1003.5 1.4
01/05:30pm 15.1 6.7 9.7 70 2.8 SW 44 54 24 29 1002.6 1002.5 1.4
01/05:00pm 15.3 6.7 10.3 72 2.6 SW 46 54 25 29 1001.8 1001.7 1.4
01/04:30pm 15.1 7.5 11.9 81 1.7 SW 43 52 23 28 1001.6 1001.5 1.4
01/04:00pm 14.5 6.8 12.0 85 1.4 SW 44 52 24 28 1000.9 1000.8 1.4
01/03:30pm 14.9 6.8 13.1 89 1.0 SSW 48 57 26 31 1001.0 1000.9 1.4
01/03:28pm 14.9 6.4 13.3 90 0.9 SSW 50 57 27 31 1000.7 1000.6 1.4
01/03:00pm 15.3 10.9 14.0 92 0.7 SSW 30 37 16 20 1001.0 1000.9 1.4
01/02:30pm 15.2 11.8 13.7 91 0.8 SSW 24 32 13 17 1001.1 1001.0 1.0
01/02:00pm 15.6 12.2 13.8 89 1.0 SW 24 30 13 16 1001.4 1001.3 0.4
01/01:30pm 15.9 9.6 13.6 86 1.3 SSW 39 44 21 24 1000.7 1000.6 0.0
01/01:00pm 15.5 8.8 13.5 88 1.1 SSW 41 48 22 26 999.6 999.5 0.0
01/12:30pm 16.5 10.1 13.2 81 1.8 S 39 46 21 25 998.9 998.8 0.0
01/12:00pm 17.5 10.0 12.6 73 2.7 S 44 54 24 29 998.3 998.2 0.0
01/11:30am 18.0 11.4 12.5 70 3.1 S 39 44 21 24 998.5 998.4 0.0
01/11:00am 18.5 13.3 12.9 70 3.2 S 32 37 17 20 998.6 998.5 0.0
01/10:30am 18.9 14.9 12.9 68 3.4 S 26 30 14 16 998.9 998.8 0.0
01/10:00am 20.5 16.9 13.0 62 4.3 S 24 28 13 15 998.9 998.8 0.0
01/09:30am 20.2 16.6 13.2 64 4.0 S 24 28 13 15 998.8 998.7 0.0
01/09:00am 19.6 15.9 12.8 65 3.9 S 24 28 13 15 999.0 998.9 0.0
01/08:30am 19.6 16.0 13.1 66 3.7 S 24 32 13 17 999.4 999.3 0.0
01/08:00am 19.4 15.6 13.6 69 3.3 SSE 26 32 14 17 998.6 998.5 0.0
01/07:30am 19.6 15.7 13.3 67 3.6 S 26 32 14 17 998.2 998.1 0.0
01/07:00am 21.9 18.8 13.5 59 4.9 SSW 22 30 12 16 998.1 998.0 0.0
01/06:53am 20.5 19.8 14.2 67 3.7 WNW 11 19 6 10 997.8 997.7 0.0
01/06:30am 18.4 14.8 17.2 93 0.7 N 32 37 17 20 995.8 995.7 0.0
01/06:00am 17.2 16.2 16.7 97 0.3 N 17 20 9 11 996.4 996.3 0.0
01/05:30am 17.4 15.6 16.9 97 0.3 N 22 26 12 14 996.6 996.5 0.0
01/05:00am 17.4 15.6 16.9 97 0.3 N 22 24 12 13 997.0 996.9 0.0
01/04:30am 17.4 15.2 16.9 97 0.3 N 24 30 13 16 997.2 997.1 0.0
01/04:00am 17.5 14.6 17.0 97 0.3 N 28 30 15 16 997.5 997.4 0.0
01/03:30am 17.5 15.0 17.0 97 0.3 N 26 28 14 15 998.0 997.9 0.0
01/03:00am 17.4 16.0 16.9 97 0.3 N 20 22 11 12 998.6 998.5 0.0
01/02:30am 17.5 15.3 16.9 96 0.4 N 24 26 13 14 998.9 998.8 0.0
01/02:00am 17.5 16.1 16.9 96 0.4 N 20 20 11 11 999.7 999.7 0.0
01/01:30am 17.6 16.8 17.0 96 0.4 N 17 19 9 10 1000.4 1000.4 0.0
01/01:00am 17.8 16.7 17.2 96 0.4 N 19 22 10 12 1001.0 1001.0 0.0
01/12:30am 17.9 17.2 17.3 96 0.4 N 17 22 9 12 1001.6 1001.6 0.0
01/12:00am 18.2 17.2 17.6 96 0.4 N 19 22 10 12 1002.2 1002.2 0.0
 
Date/Time
EDT
Temp
°C
App
Temp
°C
Dew
Point
Rel
Hum
%
Delta-T
°C
Wind Press
QNH
hPa
Press
MSL
hPa
Rain
since 9 am
mm
Dir
 
Spd
km/h
Gust
km/h
Spd
kts
Gust
kts
31/11:30pm 18.1 16.8 17.3 95 0.5 N 20 22 11 12 1002.5 1002.5 0.0
31/11:00pm 18.1 17.0 17.3 95 0.5 N 19 22 10 12 1003.0 1003.0 0.0
31/10:30pm 18.0 17.5 17.0 94 0.6 N 15 17 8 9 1003.5 1003.5 0.0
31/10:00pm 17.9 18.2 16.9 94 0.6 N 11 15 6 8 1003.9 1003.9 0.0
31/09:30pm 18.1 17.6 17.0 93 0.7 N 15 17 8 9 1004.4 1004.4 0.0
31/09:00pm 18.2 18.1 17.0 93 0.7 N 13 13 7 7 1004.7 1004.7 0.0
31/08:30pm 18.2 18.5 16.9 92 0.8 N 11 13 6 7 1004.8 1004.8 0.0
31/08:00pm 18.3 18.1 16.8 91 0.9 N 13 15 7 8 1004.9 1004.9 0.0
31/07:30pm 18.4 18.2 16.7 90 1.0 N 13 15 7 8 1005.2 1005.2 0.0
31/07:00pm 18.7 19.0 16.9 89 1.1 N 11 13 6 7 1005.1 1005.1 0.0
31/06:30pm 19.1 19.4 16.9 87 1.3 N 11 13 6 7 1005.1 1005.1 0.0
31/06:00pm 19.4 19.7 17.0 86 1.5 N 11 13 6 7 1005.3 1005.3 0.0
31/05:30pm 20.4 20.9 17.4 83 1.8 N 11 13 6 7 1005.5 1005.5 0.0
31/05:00pm 20.7 21.5 17.3 81 2.1 N 9 11 5 6 1005.7 1005.7 0.0
31/04:30pm 21.6 22.6 17.8 79 2.4 NNE 9 13 5 7 1006.0 1006.0 0.0
31/04:00pm 21.0 21.7 17.0 78 2.4 NNE 9 9 5 5 1006.4 1006.4 0.0
31/03:30pm 20.8 20.3 17.0 79 2.3 NNE 15 17 8 9 1006.6 1006.6 0.0
31/03:00pm 20.5 20.4 16.9 80 2.2 N 13 15 7 8 1007.2 1007.2 0.0
31/02:30pm 20.7 19.4 16.7 78 2.4 N 19 20 10 11 1007.2 1007.2 0.0
31/02:00pm 20.6 19.0 16.6 78 2.4 NNE 20 22 11 12 1007.5 1007.5 0.0
31/01:30pm 21.1 19.5 16.5 75 2.8 NNE 20 22 11 12 1007.9 1007.9 0.0
31/01:00pm 21.3 20.0 16.7 75 2.8 NNE 19 22 10 12 1008.3 1008.3 0.0
31/12:30pm 20.8 19.3 16.2 75 2.8 NNE 19 22 10 12 1008.9 1008.9 0.0
31/12:00pm 21.0 19.5 16.4 75 2.8 NNE 19 22 10 12 1009.5 1009.5 0.0
31/11:30am 20.6 18.9 16.2 76 2.6 N 20 24 11 13 1010.1 1010.1 0.0
31/11:00am 19.4 16.2 15.3 77 2.4 N 26 30 14 16 1010.6 1010.6 0.0
31/10:30am 19.4 16.3 15.5 78 2.3 N 26 30 14 16 1010.9 1010.9 0.0
31/10:00am 18.8 14.7 14.9 78 2.3 N 30 32 16 17 1011.3 1011.3 0.0
31/09:30am 18.7 15.3 14.8 78 2.3 N 26 30 14 16 1011.7 1011.7 0.0
31/09:00am 18.4 15.8 14.9 80 2.0 N 22 24 12 13 1012.1 1012.1 0.0
31/08:30am 18.1 16.1 15.0 82 1.8 N 19 22 10 12 1012.2 1012.2 0.0
31/08:00am 16.8 15.7 14.4 86 1.4 N 13 17 7 9 1012.2 1012.2 0.0
31/07:30am 16.5 15.8 14.3 87 1.3 N 11 13 6 7 1012.3 1012.3 0.0
31/07:00am 15.9 15.3 13.6 86 1.3 N 9 11 5 6 1012.4 1012.4 0.0
31/06:30am 15.9 15.6 13.4 85 1.4 N 7 9 4 5 1012.5 1012.5 0.0
31/06:00am 15.7 15.6 13.2 85 1.4 N 6 9 3 5 1012.2 1012.2 0.0
31/05:30am 15.8 15.4 13.1 84 1.5 NNE 7 9 4 5 1012.5 1012.5 0.0
31/05:00am 15.7 16.6 12.8 83 1.6 CALM 0 0 0 0 1012.6 1012.6 0.0
31/04:30am 15.5 16.2 12.3 81 1.7 CALM 0 0 0 0 1012.8 1012.8 0.0
31/04:00am 15.4 16.1 12.2 81 1.7 CALM 0 0 0 0 1012.9 1012.9 0.0
31/03:30am 15.3 15.2 12.1 81 1.7 E 4 6 2 3 1013.1 1013.1 0.0
31/03:00am 15.3 14.8 11.9 80 1.8 ENE 6 7 3 4 1013.2 1013.2 0.0
31/02:30am 15.1 14.9 11.7 80 1.8 ENE 4 7 2 4 1013.7 1013.7 0.0
31/02:00am 14.8 15.4 11.9 83 1.6 CALM 0 0 0 0 1013.8 1013.8 0.0
31/01:30am 14.5 15.0 11.7 83 1.5 CALM 0 0 0 0 1014.2 1014.2 0.0
31/01:00am 14.2 14.6 11.4 83 1.5 CALM 0 0 0 0 1014.4 1014.4 0.0
31/12:30am 14.1 14.4 10.9 81 1.7 CALM 0 0 0 0 1014.6 1014.6 0.0
31/12:00am 14.5 13.6 11.5 82 1.6 S 7 11 4 6 1014.9 1014.9 0.0
 
Date/Time
EDT
Temp
°C
App
Temp
°C
Dew
Point
Rel
Hum
%
Delta-T
°C
Wind Press
QNH
hPa
Press
MSL
hPa
Rain
since 9 am
mm
Dir
 
Spd
km/h
Gust
km/h
Spd
kts
Gust
kts
30/11:30pm 14.7 13.6 11.8 83 1.6 S 9 13 5 7 1015.0 1015.0 0.0
30/11:00pm 14.9 13.4 12.0 83 1.6 S 11 13 6 7 1015.0 1015.0 0.0
30/10:30pm 14.9 13.0 11.9 82 1.6 S 13 17 7 9 1015.3 1015.3 0.0
30/10:00pm 15.2 12.6 12.0 81 1.7 S 17 20 9 11 1015.2 1015.2 0.0
30/09:30pm 15.3 12.3 11.9 80 1.8 S 19 20 10 11 1015.1 1015.1 0.0
30/09:00pm 15.4 12.3 12.2 81 1.7 S 20 24 11 13 1014.8 1014.8 0.0
30/08:30pm 15.6 11.3 12.2 80 1.9 S 26 32 14 17 1014.6 1014.6 0.0
30/08:00pm 15.8 11.5 12.0 78 2.1 S 26 30 14 16 1014.3 1014.3 0.0
30/07:30pm 16.0 11.6 11.6 75 2.4 S 26 30 14 16 1013.9 1013.9 0.0
30/07:00pm 16.5 12.5 11.9 74 2.5 S 24 26 13 14 1013.5 1013.5 0.0
30/06:30pm 16.8 12.8 11.7 72 2.8 S 24 26 13 14 1013.2 1013.2 0.0
30/06:00pm 17.2 12.8 11.7 70 3.0 S 26 32 14 17 1012.9 1012.9 0.0
30/05:30pm 17.5 13.8 12.6 73 2.7 S 24 28 13 15 1012.6 1012.6 0.0
30/05:00pm 18.3 15.6 13.6 74 2.7 S 20 24 11 13 1012.3 1012.3 0.0
30/04:30pm 18.9 16.5 13.7 72 3.0 S 19 20 10 11 1012.2 1012.2 0.0
30/04:00pm 19.0 15.5 13.4 70 3.2 S 24 26 13 14 1012.0 1012.0 0.0
30/03:30pm 19.5 16.7 13.2 67 3.6 SSE 20 24 11 13 1012.1 1012.1 0.0
30/03:00pm 20.0 17.5 13.5 66 3.7 SSE 19 20 10 11 1012.3 1012.3 0.0
30/02:30pm 20.5 18.7 13.2 63 4.2 SSE 15 17 8 9 1012.5 1012.5 0.0
30/02:00pm 20.5 18.2 13.0 62 4.3 SSE 17 20 9 11 1012.6 1012.6 0.0
30/01:30pm 20.8 18.2 13.3 62 4.3 SSE 19 20 10 11 1012.7 1012.7 0.0
30/01:00pm 21.1 19.3 13.3 61 4.5 SSE 15 17 8 9 1013.0 1013.0 0.0
30/12:30pm 21.4 20.1 13.8 62 4.4 SSE 13 13 7 7 1013.3 1013.3 0.0
30/12:00pm 21.0 19.9 14.2 65 4.0 SSE 13 15 7 8 1013.4 1013.4 0.0
30/11:30am 20.8 20.0 14.0 65 3.9 SSE 11 13 6 7 1013.7 1013.7 0.0
30/11:00am 20.7 20.3 14.1 66 3.8 SSE 9 11 5 6 1014.0 1014.0 0.0
30/10:30am 20.6 20.4 14.7 69 3.5 S 9 13 5 7 1014.1 1014.1 0.0
30/10:00am 20.2 20.5 15.0 72 3.1 S 7 9 4 5 1014.1 1014.1 0.0
30/09:30am 16.7 16.6 13.4 81 1.9 WSW 6 7 3 4 1014.1 1014.1 0.0
30/09:00am 15.7 15.3 12.3 80 1.9 W 6 7 3 4 1014.3 1014.3 0.0
30/08:30am 14.9 13.8 11.9 82 1.6 W 9 11 5 6 1014.5 1014.5 0.0
30/08:00am 14.0 13.3 11.5 85 1.3 W 6 7 3 4 1014.4 1014.4 0.0
30/07:30am 13.5 12.3 11.6 88 1.0 W 9 11 5 6 1014.2 1014.2 0.0
30/07:00am 13.4 12.5 11.5 88 1.0 W 7 9 4 5 1014.2 1014.2 0.0
30/06:30am 13.4 12.8 11.6 89 1.0 W 6 7 3 4 1014.0 1014.0 0.0
30/06:00am 13.4 12.5 11.3 87 1.1 W 7 9 4 5 1013.7 1013.7 0.0
30/05:30am 14.1 14.1 11.3 83 1.5 NNW 2 6 1 3 1013.8 1013.8 0.0
30/05:00am 13.6 13.9 10.8 83 1.5 CALM 0 0 0 0 1013.8 1013.8 0.0
30/04:30am 13.8 14.1 11.0 83 1.5 CALM 0 0 0 0 1013.9 1013.9 0.0
30/04:00am 14.3 14.8 11.5 83 1.5 CALM 0 0 0 0 1014.2 1014.2 0.0
30/03:30am 14.9 15.5 11.9 82 1.6 CALM 0 0 0 0 1014.5 1014.5 0.0
30/03:00am 14.9 15.5 11.9 82 1.6 CALM 0 0 0 0 1014.7 1014.7 0.0
30/02:30am 15.0 15.6 11.8 81 1.7 CALM 0 0 0 0 1014.9 1014.9 0.0
30/02:00am 14.9 15.4 11.7 81 1.7 CALM 0 0 0 0 1015.3 1015.3 0.0
30/01:30am 14.9 15.3 11.3 79 1.9 CALM 0 2 0 1 1015.8 1015.8 0.0
30/01:00am 15.1 15.4 10.9 76 2.2 CALM 0 2 0 1 1016.1 1016.1 0.0
30/12:30am 15.5 15.5 11.1 75 2.4 E 2 7 1 4 1016.3 1016.3 0.0
30/12:00am 15.5 14.7 10.9 74 2.4 SSE 6 7 3 4 1016.4 1016.4 0.0
 
Date/Time
EDT
Temp
°C
App
Temp
°C
Dew
Point
Rel
Hum
%
Delta-T
°C
Wind Press
QNH
hPa
Press
MSL
hPa
Rain
since 9 am
mm
Dir
 
Spd
km/h
Gust
km/h
Spd
kts
Gust
kts
29/11:30pm 15.5 15.7 10.7 73 2.5 CALM 0 0 0 0 1016.6 1016.6 0.0
29/11:00pm 15.5 15.7 10.5 72 2.6 CALM 0 0 0 0 1016.8 1016.8 0.0

Other Formats:

Comma delimited format used in spreadsheet applications
http://www.bom.gov.au/fwo/IDN60801/IDN60801.94934.axf

JavaScript Object Notation format (JSON) in row-major order
http://www.bom.gov.au/fwo/IDN60801/IDN60801.94934.json